createdAt,value
2018-05-17T00:00:38.996Z,0.00
2018-05-17T00:01:38.905Z,0.00
2018-05-17T00:02:38.809Z,0.00
2018-05-17T00:03:38.721Z,0.00
2018-05-17T00:04:38.662Z,0.00
2018-05-17T00:05:38.533Z,0.00
2018-05-17T00:06:38.457Z,0.00
2018-05-17T00:07:38.349Z,0.00
2018-05-17T00:08:38.259Z,0.00
2018-05-17T00:09:38.198Z,0.00
2018-05-17T00:10:38.074Z,0.00
2018-05-17T00:11:37.977Z,0.00
2018-05-17T00:12:37.986Z,0.00
2018-05-17T00:13:37.795Z,0.00
2018-05-17T00:14:37.735Z,0.00
2018-05-17T00:15:37.607Z,0.00
2018-05-17T00:16:37.519Z,0.00
2018-05-17T00:17:37.435Z,0.00
2018-05-17T00:18:37.333Z,0.00
2018-05-17T00:19:37.364Z,0.00
2018-05-17T00:20:37.147Z,0.00
2018-05-17T00:21:37.055Z,0.00
2018-05-17T00:22:36.966Z,0.00
2018-05-17T00:23:36.871Z,0.00
2018-05-17T00:24:36.813Z,0.00
2018-05-17T00:25:36.685Z,0.00
2018-05-17T00:26:36.691Z,0.00
2018-05-17T00:27:36.502Z,0.00
2018-05-17T00:28:36.409Z,0.00
2018-05-17T00:29:36.316Z,0.00
2018-05-17T00:30:36.255Z,0.00
2018-05-17T00:31:36.135Z,0.00
2018-05-17T00:32:36.040Z,0.00
2018-05-17T00:33:36.037Z,0.00
2018-05-17T00:34:35.856Z,0.00
2018-05-17T00:35:35.772Z,0.00
2018-05-17T00:36:35.703Z,0.00
2018-05-17T00:37:35.576Z,0.00
2018-05-17T00:38:35.482Z,0.00
2018-05-17T00:39:35.396Z,0.00
2018-05-17T00:40:35.395Z,0.00
2018-05-17T00:41:35.240Z,0.00
2018-05-17T00:42:35.115Z,0.00
2018-05-17T00:43:35.027Z,0.00
2018-05-17T00:44:34.932Z,0.00
2018-05-17T00:45:34.841Z,0.00
2018-05-17T00:46:34.785Z,0.00
2018-05-17T00:47:34.652Z,0.00
2018-05-17T00:48:34.561Z,0.00
2018-05-17T00:49:34.475Z,0.00
2018-05-17T00:50:34.376Z,0.00
2018-05-17T00:51:34.313Z,0.00
2018-05-17T00:52:34.194Z,0.00
2018-05-17T00:53:34.099Z,0.00
2018-05-17T00:54:34.006Z,0.00
2018-05-17T00:55:33.914Z,0.00
2018-05-17T00:56:33.826Z,0.00
2018-05-17T00:57:33.758Z,0.00
2018-05-17T00:58:33.635Z,0.00
2018-05-17T00:59:33.549Z,0.00
2018-05-17T01:00:33.453Z,0.00
2018-05-17T01:01:33.357Z,0.00
2018-05-17T01:02:33.298Z,0.00
2018-05-17T01:03:33.173Z,0.00
2018-05-17T01:04:33.084Z,0.00
2018-05-17T01:05:32.991Z,0.00
2018-05-17T01:06:32.959Z,0.00
2018-05-17T01:07:32.806Z,0.00
2018-05-17T01:08:33.504Z,0.00
2018-05-17T01:09:32.894Z,0.00
2018-05-17T01:10:32.527Z,0.00
2018-05-17T01:11:32.439Z,0.00
2018-05-17T01:12:32.949Z,0.00
2018-05-17T01:13:32.283Z,0.00
2018-05-17T01:14:32.158Z,0.00
2018-05-17T01:15:32.064Z,0.00
2018-05-17T01:16:32.068Z,0.00
2018-05-17T01:17:31.879Z,0.00
2018-05-17T01:18:31.829Z,0.00
2018-05-17T01:19:31.692Z,0.00
2018-05-17T01:20:31.602Z,0.00
2018-05-17T01:21:31.512Z,0.00
2018-05-17T01:22:31.418Z,0.00
2018-05-17T01:23:31.415Z,0.00
2018-05-17T01:24:31.269Z,0.00
2018-05-17T01:25:31.139Z,0.00
2018-05-17T01:26:31.046Z,0.00
2018-05-17T01:27:31.505Z,0.00
2018-05-17T01:28:30.862Z,0.00
2018-05-17T01:29:30.777Z,0.00
2018-05-17T01:30:30.800Z,0.00
2018-05-17T01:31:30.588Z,0.00
2018-05-17T01:32:30.494Z,0.00
2018-05-17T01:33:30.399Z,0.00
2018-05-17T01:34:30.307Z,0.00
2018-05-17T01:35:30.249Z,0.00
2018-05-17T01:36:30.124Z,0.00
2018-05-17T01:37:30.125Z,0.00
2018-05-17T01:38:29.937Z,0.00
2018-05-17T01:39:29.845Z,0.00
2018-05-17T01:40:29.762Z,0.00
2018-05-17T01:41:29.692Z,0.00
2018-05-17T01:42:29.568Z,0.00
2018-05-17T01:43:29.597Z,0.00
2018-05-17T01:44:29.391Z,0.00
2018-05-17T01:45:29.293Z,0.00
2018-05-17T01:46:29.230Z,0.00
2018-05-17T01:47:29.105Z,0.00
2018-05-17T01:48:29.018Z,0.00
2018-05-17T01:49:28.938Z,0.00
2018-05-17T01:50:28.831Z,0.00
2018-05-17T01:51:28.858Z,0.00
2018-05-17T01:52:28.646Z,0.00
2018-05-17T01:53:28.553Z,0.00
2018-05-17T01:54:28.466Z,0.00
2018-05-17T01:55:28.370Z,0.00
2018-05-17T01:56:28.314Z,0.00
2018-05-17T01:57:28.308Z,0.00
2018-05-17T01:58:28.092Z,0.00
2018-05-17T01:59:27.997Z,0.00
2018-05-17T02:00:27.905Z,0.00
2018-05-17T02:01:27.816Z,0.00
2018-05-17T02:02:27.754Z,0.00
2018-05-17T02:03:27.630Z,0.00
2018-05-17T02:04:27.538Z,0.00
2018-05-17T02:05:27.446Z,0.00
2018-05-17T02:06:27.358Z,0.00
2018-05-17T02:07:27.300Z,0.00
2018-05-17T02:08:27.176Z,0.00
2018-05-17T02:09:27.077Z,0.00
2018-05-17T02:10:27.000Z,0.00
2018-05-17T02:11:26.892Z,0.00
2018-05-17T02:12:26.806Z,0.00
2018-05-17T02:13:26.740Z,0.00
2018-05-17T02:14:26.616Z,0.00
2018-05-17T02:15:26.525Z,0.00
2018-05-17T02:16:26.437Z,0.00
2018-05-17T02:17:26.342Z,0.00
2018-05-17T02:18:26.279Z,0.00
2018-05-17T02:19:26.159Z,0.00
2018-05-17T02:20:26.074Z,0.00
2018-05-17T02:21:25.969Z,0.00
2018-05-17T02:22:25.877Z,0.00
2018-05-17T02:23:25.824Z,0.00
2018-05-17T02:24:25.697Z,0.00
2018-05-17T02:25:25.602Z,0.00
2018-05-17T02:26:25.513Z,0.00
2018-05-17T02:27:25.416Z,0.00
2018-05-17T02:28:25.326Z,0.00
2018-05-17T02:29:25.262Z,0.00
2018-05-17T02:30:25.141Z,0.00
2018-05-17T02:31:25.049Z,0.00
2018-05-17T02:32:24.958Z,0.00
2018-05-17T02:33:24.865Z,0.00
2018-05-17T02:34:24.820Z,0.00
2018-05-17T02:35:24.681Z,0.00
2018-05-17T02:36:24.593Z,0.00
2018-05-17T02:37:24.970Z,0.00
2018-05-17T02:38:24.405Z,0.00
2018-05-17T02:39:24.309Z,0.00
2018-05-17T02:40:24.252Z,0.00
2018-05-17T02:41:24.129Z,0.00
2018-05-17T02:42:24.037Z,0.00
2018-05-17T02:43:23.947Z,0.00
2018-05-17T02:44:23.852Z,0.00
2018-05-17T02:45:23.793Z,0.00
2018-05-17T02:46:23.666Z,0.00
2018-05-17T02:47:23.575Z,0.00
2018-05-17T02:48:23.484Z,0.00
2018-05-17T02:49:23.396Z,0.00
2018-05-17T02:50:23.334Z,0.00
2018-05-17T02:51:23.208Z,0.00
2018-05-17T02:52:23.118Z,0.00
2018-05-17T02:53:23.024Z,0.00
2018-05-17T02:54:23.505Z,0.00
2018-05-17T02:55:22.872Z,0.00
2018-05-17T02:56:22.749Z,0.00
2018-05-17T02:57:22.656Z,0.00
2018-05-17T02:58:22.566Z,4.00
2018-05-17T02:59:22.474Z,4.00
2018-05-17T03:00:22.508Z,4.00
2018-05-17T03:01:22.303Z,0.00
2018-05-17T03:02:22.197Z,4.00
2018-05-17T03:03:22.106Z,4.00
2018-05-17T03:04:22.015Z,4.00
2018-05-17T03:05:21.924Z,4.00
2018-05-17T03:06:21.862Z,8.00
2018-05-17T03:07:21.740Z,4.00
2018-05-17T03:08:21.645Z,8.00
2018-05-17T03:09:21.551Z,8.00
2018-05-17T03:10:21.466Z,12.00
2018-05-17T03:11:21.372Z,8.00
2018-05-17T03:12:21.309Z,12.00
2018-05-17T03:13:21.186Z,12.00
2018-05-17T03:14:21.094Z,12.00
2018-05-17T03:15:21.004Z,12.00
2018-05-17T03:16:20.911Z,16.00
2018-05-17T03:17:20.849Z,16.00
2018-05-17T03:18:20.727Z,16.00
2018-05-17T03:19:20.635Z,20.00
2018-05-17T03:20:20.542Z,24.00
2018-05-17T03:21:20.547Z,24.00
2018-05-17T03:22:20.403Z,24.00
2018-05-17T03:23:20.267Z,24.00
2018-05-17T03:24:20.178Z,32.00
2018-05-17T03:25:20.082Z,32.00
2018-05-17T03:26:19.989Z,36.00
2018-05-17T03:27:19.930Z,40.00
2018-05-17T03:28:19.904Z,52.00
2018-05-17T03:29:19.716Z,52.00
2018-05-17T03:30:19.626Z,60.00
2018-05-17T03:31:19.535Z,68.00
2018-05-17T03:32:19.486Z,76.00
2018-05-17T03:33:19.349Z,84.00
2018-05-17T03:34:19.255Z,84.00
2018-05-17T03:35:19.258Z,96.00
2018-05-17T03:36:19.071Z,104.00
2018-05-17T03:37:19.013Z,100.00
2018-05-17T03:38:18.890Z,112.00
2018-05-17T03:39:18.799Z,116.00
2018-05-17T03:40:18.707Z,124.00
2018-05-17T03:41:18.619Z,128.00
2018-05-17T03:42:18.635Z,132.00
2018-05-17T03:43:18.462Z,148.00
2018-05-17T03:44:18.336Z,172.00
2018-05-17T03:45:18.247Z,200.00
2018-05-17T03:46:18.158Z,192.00
2018-05-17T03:47:18.071Z,196.00
2018-05-17T03:48:17.973Z,204.00
2018-05-17T03:49:18.001Z,220.00
2018-05-17T03:50:17.788Z,244.00
2018-05-17T03:51:17.697Z,284.00
2018-05-17T03:52:17.605Z,244.00
2018-05-17T03:53:17.512Z,224.00
2018-05-17T03:54:17.451Z,248.00
2018-05-17T03:55:17.331Z,240.00
2018-05-17T03:56:17.332Z,248.00
2018-05-17T03:57:17.144Z,264.00
2018-05-17T03:58:17.053Z,268.00
2018-05-17T03:59:16.993Z,280.00
2018-05-17T04:00:16.871Z,296.00
2018-05-17T04:01:16.798Z,324.00
2018-05-17T04:02:16.685Z,356.00
2018-05-17T04:03:16.696Z,376.00
2018-05-17T04:04:16.536Z,404.00
2018-05-17T04:05:16.410Z,436.00
2018-05-17T04:06:16.325Z,504.00
2018-05-17T04:07:16.227Z,568.00
2018-05-17T04:08:16.136Z,592.00
2018-05-17T04:09:16.073Z,640.00
2018-05-17T04:10:16.049Z,700.00
2018-05-17T04:11:15.859Z,660.00
2018-05-17T04:12:15.769Z,668.00
2018-05-17T04:13:15.677Z,620.00
2018-05-17T04:14:15.639Z,660.00
2018-05-17T04:15:15.496Z,664.00
2018-05-17T04:16:15.403Z,644.00
2018-05-17T04:17:15.400Z,720.00
2018-05-17T04:18:15.218Z,648.00
2018-05-17T04:19:15.155Z,752.00
2018-05-17T04:20:15.033Z,820.00
2018-05-17T04:21:14.942Z,872.00
2018-05-17T04:22:14.852Z,808.00
2018-05-17T04:23:14.758Z,648.00
2018-05-17T04:24:14.789Z,560.00
2018-05-17T04:25:14.578Z,568.00
2018-05-17T04:26:14.484Z,596.00
2018-05-17T04:27:14.391Z,672.00
2018-05-17T04:28:15.129Z,664.00
2018-05-17T04:29:14.217Z,624.00
2018-05-17T04:30:14.236Z,624.00
2018-05-17T04:31:14.031Z,544.00
2018-05-17T04:32:13.935Z,504.00
2018-05-17T04:33:13.843Z,564.00
2018-05-17T04:34:13.750Z,664.00
2018-05-17T04:35:13.692Z,684.00
2018-05-17T04:36:13.566Z,796.00
2018-05-17T04:37:13.474Z,724.00
2018-05-17T04:38:13.476Z,688.00
2018-05-17T04:39:13.290Z,864.00
2018-05-17T04:40:13.234Z,760.00
2018-05-17T04:41:13.192Z,744.00
2018-05-17T04:42:13.015Z,584.00
2018-05-17T04:43:12.925Z,732.00
2018-05-17T04:44:12.832Z,964.00
2018-05-17T04:45:12.782Z,928.00
2018-05-17T04:46:12.646Z,704.00
2018-05-17T04:47:12.644Z,908.00
2018-05-17T04:48:12.465Z,704.00
2018-05-17T04:49:12.373Z,716.00
2018-05-17T04:50:12.282Z,976.00
2018-05-17T04:51:12.219Z,904.00
2018-05-17T04:52:12.095Z,904.00
2018-05-17T04:53:12.007Z,888.00
2018-05-17T04:54:11.916Z,796.00
2018-05-17T04:55:11.822Z,672.00
2018-05-17T04:56:11.763Z,540.00
2018-05-17T04:57:11.639Z,508.00
2018-05-17T04:58:11.552Z,448.00
2018-05-17T04:59:11.460Z,524.00
2018-05-17T05:00:11.363Z,548.00
2018-05-17T05:01:11.302Z,480.00
2018-05-17T05:02:11.176Z,508.00
2018-05-17T05:03:11.085Z,604.00
2018-05-17T05:04:10.996Z,796.00
2018-05-17T05:05:10.902Z,912.00
2018-05-17T05:06:10.842Z,892.00
2018-05-17T05:07:10.720Z,828.00
2018-05-17T05:08:10.628Z,676.00
2018-05-17T05:09:10.536Z,496.00
2018-05-17T05:10:10.443Z,544.00
2018-05-17T05:11:10.355Z,556.00
2018-05-17T05:12:10.295Z,564.00
2018-05-17T05:13:10.168Z,552.00
2018-05-17T05:14:10.076Z,776.00
2018-05-17T05:15:09.986Z,884.00
2018-05-17T05:16:09.893Z,1616.00
2018-05-17T05:17:09.835Z,1484.00
2018-05-17T05:18:09.709Z,1424.00
2018-05-17T05:19:09.619Z,1188.00
2018-05-17T05:20:09.527Z,1048.00
2018-05-17T05:21:09.432Z,824.00
2018-05-17T05:22:09.387Z,808.00
2018-05-17T05:23:09.250Z,868.00
2018-05-17T05:24:09.159Z,964.00
2018-05-17T05:25:09.067Z,932.00
2018-05-17T05:26:08.974Z,1276.00
2018-05-17T05:27:08.883Z,1656.00
2018-05-17T05:28:08.824Z,1288.00
2018-05-17T05:29:08.703Z,1536.00
2018-05-17T05:30:08.608Z,1708.00
2018-05-17T05:31:08.515Z,1280.00
2018-05-17T05:32:08.431Z,1316.00
2018-05-17T05:33:08.364Z,1124.00
2018-05-17T05:34:08.241Z,844.00
2018-05-17T05:35:08.153Z,944.00
2018-05-17T05:36:08.058Z,1364.00
2018-05-17T05:37:07.965Z,1352.00
2018-05-17T05:38:07.904Z,2120.00
2018-05-17T05:39:07.867Z,2072.00
2018-05-17T05:40:07.695Z,1692.00
2018-05-17T05:41:07.600Z,1944.00
2018-05-17T05:42:07.507Z,1692.00
2018-05-17T05:43:07.531Z,1576.00
2018-05-17T05:44:07.325Z,1416.00
2018-05-17T05:45:07.230Z,1476.00
2018-05-17T05:46:07.154Z,1892.00
2018-05-17T05:47:07.139Z,1920.00
2018-05-17T05:48:07.005Z,2356.00
2018-05-17T05:49:06.867Z,1968.00
2018-05-17T05:50:06.771Z,1832.00
2018-05-17T05:51:06.681Z,1812.00
2018-05-17T05:52:06.596Z,1744.00
2018-05-17T05:53:06.495Z,2152.00
2018-05-17T05:54:06.530Z,3044.00
2018-05-17T05:55:06.315Z,2148.00
2018-05-17T05:56:06.222Z,1660.00
2018-05-17T05:57:06.129Z,2360.00
2018-05-17T05:58:06.038Z,1556.00
2018-05-17T05:59:05.976Z,2208.00
2018-05-17T06:00:05.856Z,2024.00
2018-05-17T06:01:05.858Z,1728.00
2018-05-17T06:02:05.677Z,1808.00
2018-05-17T06:03:05.578Z,2068.00
2018-05-17T06:04:05.494Z,1784.00
2018-05-17T06:05:05.427Z,1748.00
2018-05-17T06:06:05.306Z,1636.00
2018-05-17T06:07:05.217Z,1232.00
2018-05-17T06:08:05.214Z,908.00
2018-05-17T06:09:05.030Z,1072.00
2018-05-17T06:10:04.974Z,1820.00
2018-05-17T06:11:04.849Z,2120.00
2018-05-17T06:12:04.761Z,1980.00
2018-05-17T06:13:04.677Z,1576.00
2018-05-17T06:14:04.571Z,1308.00
2018-05-17T06:15:04.567Z,1888.00
2018-05-17T06:16:04.391Z,2168.00
2018-05-17T06:17:05.015Z,1460.00
2018-05-17T06:18:04.204Z,1432.00
2018-05-17T06:19:04.115Z,1284.00
2018-05-17T06:20:04.054Z,1448.00
2018-05-17T06:21:03.928Z,1448.00
2018-05-17T06:22:03.838Z,1440.00
2018-05-17T06:23:03.750Z,1484.00
2018-05-17T06:24:03.653Z,1772.00
2018-05-17T06:25:03.591Z,1764.00
2018-05-17T06:26:03.471Z,2140.00
2018-05-17T06:27:03.391Z,1712.00
2018-05-17T06:28:03.291Z,1520.00
2018-05-17T06:29:03.197Z,3188.00
2018-05-17T06:30:03.138Z,2472.00
2018-05-17T06:31:03.017Z,2300.00
2018-05-17T06:32:02.921Z,2620.00
2018-05-17T06:33:02.827Z,2908.00
2018-05-17T06:34:02.732Z,2836.00
2018-05-17T06:35:02.682Z,2204.00
2018-05-17T06:36:02.552Z,2444.00
2018-05-17T06:37:02.459Z,1740.00
2018-05-17T06:38:02.371Z,3120.00
2018-05-17T06:39:02.276Z,2636.00
2018-05-17T06:40:02.220Z,1896.00
2018-05-17T06:41:02.099Z,2064.00
2018-05-17T06:42:02.000Z,1716.00
2018-05-17T06:43:01.910Z,1992.00
2018-05-17T06:44:02.187Z,1436.00
2018-05-17T06:45:01.758Z,1344.00
2018-05-17T06:46:02.526Z,1396.00
2018-05-17T06:47:01.547Z,1460.00
2018-05-17T06:48:01.453Z,1316.00
2018-05-17T06:49:01.359Z,1792.00
2018-05-17T06:50:01.269Z,1500.00
2018-05-17T06:51:01.206Z,2148.00
2018-05-17T06:52:01.085Z,2192.00
2018-05-17T06:53:00.992Z,2228.00
2018-05-17T06:54:00.901Z,2192.00
2018-05-17T06:55:00.815Z,2620.00
2018-05-17T06:56:00.745Z,3624.00
2018-05-17T06:57:00.716Z,3292.00
2018-05-17T06:58:00.532Z,3564.00
2018-05-17T06:59:00.442Z,2940.00
2018-05-17T07:00:00.351Z,2696.00
2018-05-17T07:01:00.400Z,2672.00
2018-05-17T07:02:00.167Z,2548.00
2018-05-17T07:03:00.075Z,2176.00
2018-05-17T07:03:59.984Z,2220.00
2018-05-17T07:04:59.988Z,2568.00
2018-05-17T07:05:59.832Z,2164.00
2018-05-17T07:07:00.576Z,1792.00
2018-05-17T07:07:59.630Z,1572.00
2018-05-17T07:08:59.520Z,1612.00
2018-05-17T07:09:59.437Z,1856.00
2018-05-17T07:10:59.369Z,2152.00
2018-05-17T07:11:59.337Z,2544.00
2018-05-17T07:12:59.158Z,2384.00
2018-05-17T07:13:59.063Z,3008.00
2018-05-17T07:14:58.969Z,2656.00
2018-05-17T07:16:00.527Z,2572.00
2018-05-17T07:16:58.785Z,2260.00
2018-05-17T07:17:58.820Z,2688.00
2018-05-17T07:18:58.613Z,2412.00
2018-05-17T07:19:58.511Z,1816.00
2018-05-17T07:20:58.450Z,1952.00
2018-05-17T07:21:58.330Z,1772.00
2018-05-17T07:22:58.234Z,1900.00
2018-05-17T07:23:58.144Z,2188.00
2018-05-17T07:24:58.050Z,2004.00
2018-05-17T07:25:57.989Z,1912.00
2018-05-17T07:26:57.867Z,2376.00
2018-05-17T07:27:57.774Z,2836.00
2018-05-17T07:28:57.681Z,3412.00
2018-05-17T07:29:57.599Z,4344.00
2018-05-17T07:30:57.539Z,4424.00
2018-05-17T07:31:57.407Z,4040.00
2018-05-17T07:32:57.312Z,3264.00
2018-05-17T07:33:57.225Z,2276.00
2018-05-17T07:34:57.131Z,2644.00
2018-05-17T07:35:57.072Z,3240.00
2018-05-17T07:36:56.946Z,3140.00
2018-05-17T07:37:56.853Z,2540.00
2018-05-17T07:38:56.761Z,2088.00
2018-05-17T07:39:56.671Z,2276.00
2018-05-17T07:40:56.608Z,2396.00
2018-05-17T07:41:56.485Z,2100.00
2018-05-17T07:42:56.391Z,1800.00
2018-05-17T07:43:56.301Z,1788.00
2018-05-17T07:44:56.209Z,1584.00
2018-05-17T07:45:56.153Z,1412.00
2018-05-17T07:46:56.025Z,1644.00
2018-05-17T07:47:55.930Z,1556.00
2018-05-17T07:48:55.841Z,1432.00
2018-05-17T07:49:55.750Z,1460.00
2018-05-17T07:50:55.686Z,1680.00
2018-05-17T07:51:55.577Z,1976.00
2018-05-17T07:52:55.472Z,3428.00
2018-05-17T07:53:55.387Z,3768.00
2018-05-17T07:54:55.289Z,4236.00
2018-05-17T07:55:55.229Z,4852.00
2018-05-17T07:56:55.104Z,6440.00
2018-05-17T07:57:55.014Z,7140.00
2018-05-17T07:58:54.920Z,7472.00
2018-05-17T07:59:54.825Z,7036.00
2018-05-17T08:00:54.774Z,6580.00
2018-05-17T08:01:54.641Z,6000.00
2018-05-17T08:02:54.549Z,7256.00
2018-05-17T08:03:54.458Z,7128.00
2018-05-17T08:04:54.367Z,7320.00
2018-05-17T08:05:54.275Z,8756.00
2018-05-17T08:06:54.223Z,8244.00
2018-05-17T08:07:54.093Z,8396.00
2018-05-17T08:08:53.998Z,6572.00
2018-05-17T08:09:53.905Z,5116.00
2018-05-17T08:10:53.816Z,4368.00
2018-05-17T08:11:53.756Z,4196.00
2018-05-17T08:12:53.632Z,3708.00
2018-05-17T08:13:53.541Z,4052.00
2018-05-17T08:14:53.450Z,4052.00
2018-05-17T08:15:53.360Z,4020.00
2018-05-17T08:16:53.298Z,4444.00
2018-05-17T08:17:53.177Z,6140.00
2018-05-17T08:18:53.083Z,5884.00
2018-05-17T08:19:52.988Z,5204.00
2018-05-17T08:20:52.979Z,3876.00
2018-05-17T08:21:52.837Z,4860.00
2018-05-17T08:22:52.714Z,3852.00
2018-05-17T08:23:52.623Z,4092.00
2018-05-17T08:24:52.531Z,5264.00
2018-05-17T08:25:52.442Z,5124.00
2018-05-17T08:26:52.378Z,5092.00
2018-05-17T08:27:52.350Z,4784.00
2018-05-17T08:28:52.257Z,3980.00
2018-05-17T08:29:52.073Z,4960.00
2018-05-17T08:30:51.994Z,3720.00
2018-05-17T08:31:51.922Z,3312.00
2018-05-17T08:32:51.795Z,3416.00
2018-05-17T08:33:51.713Z,3700.00
2018-05-17T08:34:51.710Z,3452.00
2018-05-17T08:35:51.523Z,4324.00
2018-05-17T08:36:51.464Z,5028.00
2018-05-17T08:37:51.338Z,5260.00
2018-05-17T08:38:51.249Z,4944.00
2018-05-17T08:39:51.155Z,4836.00
2018-05-17T08:40:51.063Z,4172.00
2018-05-17T08:41:51.102Z,4048.00
2018-05-17T08:42:50.887Z,3464.00
2018-05-17T08:43:50.786Z,3760.00
2018-05-17T08:44:50.695Z,3516.00
2018-05-17T08:45:50.603Z,2784.00
2018-05-17T08:46:50.546Z,3736.00
2018-05-17T08:47:50.420Z,4232.00
2018-05-17T08:48:50.419Z,5888.00
2018-05-17T08:49:50.236Z,5464.00
2018-05-17T08:50:50.144Z,5560.00
2018-05-17T08:51:50.099Z,6816.00
2018-05-17T08:52:49.961Z,9024.00
2018-05-17T08:53:49.869Z,9824.00
2018-05-17T08:54:49.778Z,8936.00
2018-05-17T08:55:49.777Z,10204.00
2018-05-17T08:56:49.640Z,10824.00
2018-05-17T08:57:49.502Z,9892.00
2018-05-17T08:58:49.411Z,8348.00
2018-05-17T08:59:49.384Z,8200.00
2018-05-17T09:00:49.228Z,5956.00
2018-05-17T09:01:49.184Z,5976.00
2018-05-17T09:02:49.045Z,5864.00
2018-05-17T09:03:48.951Z,5412.00
2018-05-17T09:04:48.858Z,5252.00
2018-05-17T09:05:48.767Z,4204.00
2018-05-17T09:06:48.707Z,3572.00
2018-05-17T09:07:48.587Z,4012.00
2018-05-17T09:08:48.494Z,3976.00
2018-05-17T09:09:48.412Z,4312.00
2018-05-17T09:10:48.314Z,4412.00
2018-05-17T09:11:48.258Z,3672.00
2018-05-17T09:12:49.055Z,3660.00
2018-05-17T09:13:48.127Z,3936.00
2018-05-17T09:14:47.946Z,4836.00
2018-05-17T09:15:47.852Z,7540.00
2018-05-17T09:16:47.761Z,9116.00
2018-05-17T09:17:47.717Z,12972.00
2018-05-17T09:18:47.576Z,14536.00
2018-05-17T09:19:47.484Z,12280.00
2018-05-17T09:20:47.393Z,12828.00
2018-05-17T09:21:47.303Z,11180.00
2018-05-17T09:22:47.246Z,11528.00
2018-05-17T09:23:47.119Z,10908.00
2018-05-17T09:24:47.026Z,10152.00
2018-05-17T09:25:46.936Z,13000.00
2018-05-17T09:26:46.845Z,10928.00
2018-05-17T09:27:46.812Z,11108.00
2018-05-17T09:28:46.658Z,10588.00
2018-05-17T09:29:46.570Z,9484.00
2018-05-17T09:30:46.481Z,8992.00
2018-05-17T09:31:46.389Z,9100.00
2018-05-17T09:32:46.329Z,12228.00
2018-05-17T09:33:46.202Z,9220.00
2018-05-17T09:34:46.113Z,6996.00
2018-05-17T09:35:46.096Z,6492.00
2018-05-17T09:36:45.931Z,8816.00
2018-05-17T09:37:45.870Z,7160.00
2018-05-17T09:38:45.748Z,5472.00
2018-05-17T09:39:45.655Z,6372.00
2018-05-17T09:40:45.571Z,5772.00
2018-05-17T09:41:45.475Z,6464.00
2018-05-17T09:42:45.414Z,11800.00
2018-05-17T09:43:46.068Z,11824.00
2018-05-17T09:44:45.202Z,7240.00
2018-05-17T09:45:45.116Z,10992.00
2018-05-17T09:46:45.019Z,11080.00
2018-05-17T09:47:44.963Z,8612.00
2018-05-17T09:48:44.840Z,6624.00
2018-05-17T09:49:44.747Z,6264.00
2018-05-17T09:50:44.653Z,8908.00
2018-05-17T09:51:44.564Z,11272.00
2018-05-17T09:52:44.505Z,10664.00
2018-05-17T09:53:44.379Z,9592.00
2018-05-17T09:54:44.292Z,10204.00
2018-05-17T09:55:44.201Z,13992.00
2018-05-17T09:56:44.109Z,12036.00
2018-05-17T09:57:44.048Z,8228.00
2018-05-17T09:58:43.927Z,10852.00
2018-05-17T09:59:43.838Z,11664.00
2018-05-17T10:00:43.744Z,10836.00
2018-05-17T10:01:43.653Z,8472.00
2018-05-17T10:02:43.592Z,6960.00
2018-05-17T10:03:43.489Z,7532.00
2018-05-17T10:04:43.469Z,11156.00
2018-05-17T10:05:43.290Z,9860.00
2018-05-17T10:06:43.199Z,10512.00
2018-05-17T10:07:43.142Z,8744.00
2018-05-17T10:08:43.017Z,8096.00
2018-05-17T10:09:42.927Z,6900.00
2018-05-17T10:10:42.832Z,8656.00
2018-05-17T10:11:42.745Z,6376.00
2018-05-17T10:12:42.692Z,5896.00
2018-05-17T10:13:42.564Z,6464.00
2018-05-17T10:14:42.564Z,5860.00
2018-05-17T10:15:42.380Z,7052.00
2018-05-17T10:16:42.295Z,7056.00
2018-05-17T10:17:42.229Z,5336.00
2018-05-17T10:18:42.207Z,4504.00
2018-05-17T10:19:42.025Z,6936.00
2018-05-17T10:20:41.928Z,6272.00
2018-05-17T10:21:41.838Z,6412.00
2018-05-17T10:22:41.774Z,7728.00
2018-05-17T10:23:41.654Z,10024.00
2018-05-17T10:24:41.565Z,11164.00
2018-05-17T10:25:41.563Z,11536.00
2018-05-17T10:26:41.381Z,11872.00
2018-05-17T10:27:41.322Z,19264.00
2018-05-17T10:28:41.203Z,11964.00
2018-05-17T10:29:41.109Z,9768.00
2018-05-17T10:30:41.020Z,5888.00
2018-05-17T10:31:40.928Z,5716.00
2018-05-17T10:32:40.929Z,4552.00
2018-05-17T10:33:40.778Z,3700.00
2018-05-17T10:34:40.666Z,3328.00
2018-05-17T10:35:40.562Z,3792.00
2018-05-17T10:36:40.471Z,4928.00
2018-05-17T10:37:40.381Z,5216.00
2018-05-17T10:38:40.322Z,5652.00
2018-05-17T10:39:40.294Z,5464.00
2018-05-17T10:40:40.108Z,5232.00
2018-05-17T10:41:40.015Z,5848.00
2018-05-17T10:42:39.924Z,4944.00
2018-05-17T10:43:39.864Z,4528.00
2018-05-17T10:44:39.754Z,5100.00
2018-05-17T10:45:39.651Z,4896.00
2018-05-17T10:46:39.657Z,4708.00
2018-05-17T10:47:39.469Z,4952.00
2018-05-17T10:48:39.411Z,7412.00
2018-05-17T10:49:39.287Z,7568.00
2018-05-17T10:50:39.192Z,6160.00
2018-05-17T10:51:39.102Z,6372.00
2018-05-17T10:52:39.010Z,7648.00
2018-05-17T10:53:39.043Z,7288.00
2018-05-17T10:54:38.827Z,6604.00
2018-05-17T10:55:38.736Z,5860.00
2018-05-17T10:56:38.646Z,4976.00
2018-05-17T10:57:38.555Z,5032.00
2018-05-17T10:58:38.492Z,5236.00
2018-05-17T10:59:38.369Z,6708.00
2018-05-17T11:00:39.138Z,8852.00
2018-05-17T11:01:38.186Z,8180.00
2018-05-17T11:02:38.108Z,6304.00
2018-05-17T11:03:38.034Z,5108.00
2018-05-17T11:04:37.912Z,4152.00
2018-05-17T11:05:37.818Z,4056.00
2018-05-17T11:06:37.729Z,4176.00
2018-05-17T11:07:37.725Z,5264.00
2018-05-17T11:08:37.581Z,5548.00
2018-05-17T11:09:37.455Z,7892.00
2018-05-17T11:10:37.363Z,6016.00
2018-05-17T11:11:37.271Z,6548.00
2018-05-17T11:12:37.179Z,8444.00
2018-05-17T11:13:37.121Z,9984.00
2018-05-17T11:14:36.998Z,8532.00
2018-05-17T11:15:36.906Z,7028.00
2018-05-17T11:16:37.584Z,6728.00
2018-05-17T11:17:36.723Z,6788.00
2018-05-17T11:18:36.665Z,4564.00
2018-05-17T11:19:36.539Z,4148.00
2018-05-17T11:20:36.446Z,3660.00
2018-05-17T11:21:36.355Z,3316.00
2018-05-17T11:22:36.266Z,3740.00
2018-05-17T11:23:36.205Z,5092.00
2018-05-17T11:24:36.083Z,6788.00
2018-05-17T11:25:35.989Z,8200.00
2018-05-17T11:26:35.914Z,8876.00
2018-05-17T11:27:35.808Z,10312.00
2018-05-17T11:28:35.744Z,7460.00
2018-05-17T11:29:35.635Z,6808.00
2018-05-17T11:30:35.542Z,5156.00
2018-05-17T11:31:35.444Z,6088.00
2018-05-17T11:32:35.352Z,8472.00
2018-05-17T11:33:35.286Z,8388.00
2018-05-17T11:34:35.167Z,7448.00
2018-05-17T11:35:35.082Z,7560.00
2018-05-17T11:36:34.978Z,6108.00
2018-05-17T11:37:34.893Z,5252.00
2018-05-17T11:38:34.876Z,4548.00
2018-05-17T11:39:34.717Z,4236.00
2018-05-17T11:40:34.617Z,4240.00
2018-05-17T11:41:34.523Z,4800.00
2018-05-17T11:42:34.433Z,4352.00
2018-05-17T11:43:34.344Z,4340.00
2018-05-17T11:44:34.278Z,4748.00
2018-05-17T11:45:34.159Z,4388.00
2018-05-17T11:46:34.065Z,5100.00
2018-05-17T11:47:33.975Z,5228.00
2018-05-17T11:48:33.882Z,4556.00
2018-05-17T11:49:33.824Z,4852.00
2018-05-17T11:50:33.700Z,4432.00
2018-05-17T11:51:33.605Z,7364.00
2018-05-17T11:52:33.514Z,7708.00
2018-05-17T11:53:33.425Z,7328.00
2018-05-17T11:54:33.366Z,6800.00
2018-05-17T11:55:33.238Z,7400.00
2018-05-17T11:56:33.146Z,6552.00
2018-05-17T11:57:33.055Z,4704.00
2018-05-17T11:58:32.961Z,4752.00
2018-05-17T11:59:32.904Z,4188.00
2018-05-17T12:00:32.781Z,4064.00
2018-05-17T12:01:32.752Z,4444.00
2018-05-17T12:02:32.616Z,5456.00
2018-05-17T12:03:32.511Z,6476.00
2018-05-17T12:04:32.444Z,7500.00
2018-05-17T12:05:32.319Z,6800.00
2018-05-17T12:06:32.225Z,7448.00
2018-05-17T12:07:32.159Z,5864.00
2018-05-17T12:08:32.048Z,6212.00
2018-05-17T12:09:31.984Z,5568.00
2018-05-17T12:10:31.860Z,4532.00
2018-05-17T12:11:31.767Z,6244.00
2018-05-17T12:12:31.674Z,7532.00
2018-05-17T12:13:31.585Z,6564.00
2018-05-17T12:14:31.528Z,7872.00
2018-05-17T12:15:31.446Z,9244.00
2018-05-17T12:16:31.312Z,9572.00
2018-05-17T12:17:31.243Z,9748.00
2018-05-17T12:18:31.126Z,10272.00
2018-05-17T12:19:31.065Z,11572.00
2018-05-17T12:20:30.943Z,12052.00
2018-05-17T12:21:30.854Z,11152.00
2018-05-17T12:22:30.762Z,11600.00
2018-05-17T12:23:30.668Z,11500.00
2018-05-17T12:24:30.986Z,10932.00
2018-05-17T12:25:30.486Z,13272.00